sensor_id;sensor_type;location;lat;lon;timestamp;pressure;altitude;pressure_sealevel;temperature;humidity
72892;BME280;61032;50.782;6.818;2023-08-08T00:00:50;100555.56;;;13.75;76.67
72892;BME280;61032;50.782;6.818;2023-08-08T00:01:50;100552.47;;;13.76;76.58
72892;BME280;61032;50.782;6.818;2023-08-08T00:02:51;100550.97;;;13.79;76.55
72892;BME280;61032;50.782;6.818;2023-08-08T00:03:51;100561.19;;;13.79;76.42
72892;BME280;61032;50.782;6.818;2023-08-08T00:04:51;100544.63;;;13.79;76.58
72892;BME280;61032;50.782;6.818;2023-08-08T00:05:52;100545.53;;;13.83;76.30
72892;BME280;61032;50.782;6.818;2023-08-08T00:06:52;100540.81;;;13.83;76.36
72892;BME280;61032;50.782;6.818;2023-08-08T00:07:52;100541.16;;;13.82;76.43
72892;BME280;61032;50.782;6.818;2023-08-08T00:08:52;100542.31;;;13.81;76.42
72892;BME280;61032;50.782;6.818;2023-08-08T00:09:53;100539.56;;;13.81;76.32
72892;BME280;61032;50.782;6.818;2023-08-08T00:10:53;100547.84;;;13.81;76.38
72892;BME280;61032;50.782;6.818;2023-08-08T00:11:53;100541.63;;;13.84;76.50
72892;BME280;61032;50.782;6.818;2023-08-08T00:12:54;100534.47;;;13.83;76.34
72892;BME280;61032;50.782;6.818;2023-08-08T00:13:54;100541.16;;;13.82;76.22
72892;BME280;61032;50.782;6.818;2023-08-08T00:14:54;100549.00;;;13.80;76.34
72892;BME280;61032;50.782;6.818;2023-08-08T00:15:55;100543.00;;;13.77;76.01
72892;BME280;61032;50.782;6.818;2023-08-08T00:16:55;100541.75;;;13.75;75.90
72892;BME280;61032;50.782;6.818;2023-08-08T00:17:55;100542.09;;;13.73;76.15
72892;BME280;61032;50.782;6.818;2023-08-08T00:18:56;100538.19;;;13.74;76.26
72892;BME280;61032;50.782;6.818;2023-08-08T00:19:56;100534.97;;;13.72;76.26
72892;BME280;61032;50.782;6.818;2023-08-08T00:20:56;100537.38;;;13.74;76.31
72892;BME280;61032;50.782;6.818;2023-08-08T00:21:57;100537.72;;;13.72;76.33
72892;BME280;61032;50.782;6.818;2023-08-08T00:22:57;100531.44;;;13.60;76.46
72892;BME280;61032;50.782;6.818;2023-08-08T00:23:57;100537.88;;;13.64;76.46
72892;BME280;61032;50.782;6.818;2023-08-08T00:24:58;100537.88;;;13.64;76.70
72892;BME280;61032;50.782;6.818;2023-08-08T00:25:58;100536.16;;;13.71;76.39
72892;BME280;61032;50.782;6.818;2023-08-08T00:26:59;100538.19;;;13.74;76.50
72892;BME280;61032;50.782;6.818;2023-08-08T00:27:59;100538.91;;;13.71;76.47
72892;BME280;61032;50.782;6.818;2023-08-08T00:28:59;100536.84;;;13.68;76.41
72892;BME280;61032;50.782;6.818;2023-08-08T00:30:00;100531.31;;;13.68;76.61
72892;BME280;61032;50.782;6.818;2023-08-08T00:31:01;100528.56;;;13.68;76.40
72892;BME280;61032;50.782;6.818;2023-08-08T00:32:01;100530.84;;;13.66;76.43
72892;BME280;61032;50.782;6.818;2023-08-08T00:33:01;100528.56;;;13.68;76.50
72892;BME280;61032;50.782;6.818;2023-08-08T00:34:02;100525.78;;;13.68;76.60
72892;BME280;61032;50.782;6.818;2023-08-08T00:35:02;100529.25;;;13.65;76.42
72892;BME280;61032;50.782;6.818;2023-08-08T00:36:02;100528.09;;;13.66;76.48
72892;BME280;61032;50.782;6.818;2023-08-08T00:37:03;100528.34;;;13.61;76.31
72892;BME280;61032;50.782;6.818;2023-08-08T00:38:03;100519.59;;;13.59;76.48
72892;BME280;61032;50.782;6.818;2023-08-08T00:39:04;100517.06;;;13.66;76.19
72892;BME280;61032;50.782;6.818;2023-08-08T00:40:05;100520.63;;;13.67;76.14
72892;BME280;61032;50.782;6.818;2023-08-08T00:41:05;100514.28;;;13.66;76.29
72892;BME280;61032;50.782;6.818;2023-08-08T00:42:06;100516.34;;;13.69;76.29
72892;BME280;61032;50.782;6.818;2023-08-08T00:43:06;100514.97;;;13.63;76.32
72892;BME280;61032;50.782;6.818;2023-08-08T00:44:06;100523.28;;;13.63;76.37
72892;BME280;61032;50.782;6.818;2023-08-08T00:45:07;100517.75;;;13.63;76.15
72892;BME280;61032;50.782;6.818;2023-08-08T00:46:07;100517.28;;;13.61;76.13
72892;BME280;61032;50.782;6.818;2023-08-08T00:47:09;100512.56;;;13.62;76.17
72892;BME280;61032;50.782;6.818;2023-08-08T00:48:10;100520.03;;;13.61;76.45
72892;BME280;61032;50.782;6.818;2023-08-08T00:49:11;100525.91;;;13.60;76.14
72892;BME280;61032;50.782;6.818;2023-08-08T00:50:12;100526.63;;;13.57;75.94
72892;BME280;61032;50.782;6.818;2023-08-08T00:51:13;100527.41;;;13.57;76.00
72892;BME280;61032;50.782;6.818;2023-08-08T00:52:14;100521.78;;;13.54;76.31
72892;BME280;61032;50.782;6.818;2023-08-08T00:53:15;100522.06;;;13.49;76.34
72892;BME280;61032;50.782;6.818;2023-08-08T00:54:15;100521.94;;;13.45;76.44
72892;BME280;61032;50.782;6.818;2023-08-08T00:55:15;100518.25;;;13.41;76.30
72892;BME280;61032;50.782;6.818;2023-08-08T00:56:17;100521.84;;;13.41;76.59
72892;BME280;61032;50.782;6.818;2023-08-08T00:57:17;100523.91;;;13.45;76.62
72892;BME280;61032;50.782;6.818;2023-08-08T00:58:19;100518.50;;;13.48;76.63
72892;BME280;61032;50.782;6.818;2023-08-08T00:59:19;100512.75;;;13.41;76.35
72892;BME280;61032;50.782;6.818;2023-08-08T01:00:20;100515.38;;;13.37;76.49
72892;BME280;61032;50.782;6.818;2023-08-08T01:01:20;100514.69;;;13.40;76.45
72892;BME280;61032;50.782;6.818;2023-08-08T01:02:20;100508.38;;;13.40;76.63
72892;BME280;61032;50.782;6.818;2023-08-08T01:03:21;100511.25;;;13.44;76.53
72892;BME280;61032;50.782;6.818;2023-08-08T01:04:23;100509.63;;;13.43;76.46
72892;BME280;61032;50.782;6.818;2023-08-08T01:05:30;100511.94;;;13.40;76.34
72892;BME280;61032;50.782;6.818;2023-08-08T01:06:43;100507.22;;;13.41;76.61
72892;BME280;61032;50.782;6.818;2023-08-08T01:08:02;100508.03;;;13.41;76.34
72892;BME280;61032;50.782;6.818;2023-08-08T01:09:21;100509.53;;;13.39;76.28
72892;BME280;61032;50.782;6.818;2023-08-08T01:10:30;100509.97;;;13.41;76.57
72892;BME280;61032;50.782;6.818;2023-08-08T01:11:31;100506.66;;;13.35;76.33
72892;BME280;61032;50.782;6.818;2023-08-08T01:12:40;100506.09;;;13.30;76.58
72892;BME280;61032;50.782;6.818;2023-08-08T01:13:41;100501.34;;;13.30;77.01
72892;BME280;61032;50.782;6.818;2023-08-08T01:14:43;100506.78;;;13.27;76.54
72892;BME280;61032;50.782;6.818;2023-08-08T01:15:45;100510.03;;;13.29;76.35
72892;BME280;61032;50.782;6.818;2023-08-08T01:16:46;100514.72;;;13.28;76.56
72892;BME280;61032;50.782;6.818;2023-08-08T01:17:47;100513.94;;;13.28;76.87
72892;BME280;61032;50.782;6.818;2023-08-08T01:18:48;100513.22;;;13.31;76.81
72892;BME280;61032;50.782;6.818;2023-08-08T01:19:49;100516.78;;;13.31;76.60
72892;BME280;61032;50.782;6.818;2023-08-08T01:20:52;100510.03;;;13.29;76.53
72892;BME280;61032;50.782;6.818;2023-08-08T01:21:53;100513.13;;;13.27;76.81
72892;BME280;61032;50.782;6.818;2023-08-08T01:24:16;100512.31;;;13.27;76.60
72892;BME280;61032;50.782;6.818;2023-08-08T01:25:18;100509.22;;;13.28;76.73
72892;BME280;61032;50.782;6.818;2023-08-08T01:26:21;100500.13;;;13.28;76.54
72892;BME280;61032;50.782;6.818;2023-08-08T01:27:22;100517.16;;;13.30;76.84
72892;BME280;61032;50.782;6.818;2023-08-08T01:28:23;100502.28;;;13.34;76.57
72892;BME280;61032;50.782;6.818;2023-08-08T01:29:24;100512.97;;;13.36;76.51
72892;BME280;61032;50.782;6.818;2023-08-08T01:30:24;100510.22;;;13.36;76.49
72892;BME280;61032;50.782;6.818;2023-08-08T01:31:24;100512.28;;;13.39;76.30
72892;BME280;61032;50.782;6.818;2023-08-08T01:32:25;100505.59;;;13.40;76.29
72892;BME280;61032;50.782;6.818;2023-08-08T01:33:25;100509.53;;;13.39;76.21
72892;BME280;61032;50.782;6.818;2023-08-08T01:34:26;100511.59;;;13.42;76.08
72892;BME280;61032;50.782;6.818;2023-08-08T01:35:29;100501.69;;;13.41;76.10
72892;BME280;61032;50.782;6.818;2023-08-08T01:36:37;100502.84;;;13.40;76.33
72892;BME280;61032;50.782;6.818;2023-08-08T01:37:44;100495.00;;;13.42;76.19
72892;BME280;61032;50.782;6.818;2023-08-08T01:38:47;100500.31;;;13.35;76.33
72892;BME280;61032;50.782;6.818;2023-08-08T01:39:50;100501.94;;;13.36;76.54
72892;BME280;61032;50.782;6.818;2023-08-08T01:40:51;100497.09;;;13.33;76.70
72892;BME280;61032;50.782;6.818;2023-08-08T01:41:53;100501.81;;;13.32;76.70
72892;BME280;61032;50.782;6.818;2023-08-08T01:42:54;100496.75;;;13.34;76.89
72892;BME280;61032;50.782;6.818;2023-08-08T01:43:55;100497.56;;;13.35;76.62
72892;BME280;61032;50.782;6.818;2023-08-08T01:44:56;100496.63;;;13.31;77.02
72892;BME280;61032;50.782;6.818;2023-08-08T01:45:57;100496.75;;;13.34;76.62
72892;BME280;61032;50.782;6.818;2023-08-08T01:46:58;100501.00;;;13.32;76.69
72892;BME280;61032;50.782;6.818;2023-08-08T01:47:59;100488.72;;;13.29;76.75
72892;BME280;61032;50.782;6.818;2023-08-08T01:48:59;100496.22;;;13.29;76.49
72892;BME280;61032;50.782;6.818;2023-08-08T01:49:59;100499.78;;;13.29;76.67
72892;BME280;61032;50.782;6.818;2023-08-08T01:51:00;100492.72;;;13.32;76.89
72892;BME280;61032;50.782;6.818;2023-08-08T01:52:00;100496.63;;;13.31;76.85
72892;BME280;61032;50.782;6.818;2023-08-08T01:53:01;100498.84;;;13.25;77.08
72892;BME280;61032;50.782;6.818;2023-08-08T01:54:01;100500.13;;;13.28;76.91
72892;BME280;61032;50.782;6.818;2023-08-08T01:55:03;100498.16;;;13.28;76.85
72892;BME280;61032;50.782;6.818;2023-08-08T01:56:03;100502.44;;;13.26;76.77
72892;BME280;61032;50.782;6.818;2023-08-08T01:57:04;100502.31;;;13.22;76.91
72892;BME280;61032;50.782;6.818;2023-08-08T01:58:04;100505.16;;;13.14;77.47
72892;BME280;61032;50.782;6.818;2023-08-08T01:59:05;100506.56;;;13.07;77.52
72892;BME280;61032;50.782;6.818;2023-08-08T02:00:07;100507.72;;;13.06;77.39
72892;BME280;61032;50.782;6.818;2023-08-08T02:01:08;100501.47;;;13.09;77.58
72892;BME280;61032;50.782;6.818;2023-08-08T02:02:08;100506.56;;;13.07;77.24
72892;BME280;61032;50.782;6.818;2023-08-08T02:03:08;100501.75;;;13.04;77.37
72892;BME280;61032;50.782;6.818;2023-08-08T02:04:09;100500.81;;;13.00;77.52
72892;BME280;61032;50.782;6.818;2023-08-08T02:05:10;100499.66;;;13.01;77.57
72892;BME280;61032;50.782;6.818;2023-08-08T02:06:10;100491.38;;;13.01;78.00
72892;BME280;61032;50.782;6.818;2023-08-08T02:07:11;100498.75;;;12.97;77.71
72892;BME280;61032;50.782;6.818;2023-08-08T02:08:11;100497.94;;;12.97;77.85
72892;BME280;61032;50.782;6.818;2023-08-08T02:09:13;100499.44;;;12.94;77.86
72892;BME280;61032;50.782;6.818;2023-08-08T02:10:15;100495.41;;;12.92;78.19
72892;BME280;61032;50.782;6.818;2023-08-08T02:11:15;100505.63;;;12.91;77.91
72892;BME280;61032;50.782;6.818;2023-08-08T02:12:16;100507.13;;;12.89;77.96
72892;BME280;61032;50.782;6.818;2023-08-08T02:13:16;100504.03;;;12.90;78.13
72892;BME280;61032;50.782;6.818;2023-08-08T02:14:17;100502.41;;;12.89;77.97
72892;BME280;61032;50.782;6.818;2023-08-08T02:15:17;100499.66;;;12.89;77.97
72892;BME280;61032;50.782;6.818;2023-08-08T02:16:17;100498.41;;;12.87;78.01
72892;BME280;61032;50.782;6.818;2023-08-08T02:17:18;100501.53;;;12.85;77.82
72892;BME280;61032;50.782;6.818;2023-08-08T02:18:18;100508.06;;;12.81;78.37
72892;BME280;61032;50.782;6.818;2023-08-08T02:19:18;100502.91;;;12.79;78.29
72892;BME280;61032;50.782;6.818;2023-08-08T02:20:19;100505.66;;;12.79;78.31
72892;BME280;61032;50.782;6.818;2023-08-08T02:21:19;100499.66;;;12.77;78.54
72892;BME280;61032;50.782;6.818;2023-08-08T02:22:20;100503.56;;;12.76;78.64
72892;BME280;61032;50.782;6.818;2023-08-08T02:23:20;100501.97;;;12.75;78.74
72892;BME280;61032;50.782;6.818;2023-08-08T02:24:21;100501.50;;;12.73;78.77
72892;BME280;61032;50.782;6.818;2023-08-08T02:25:21;100497.94;;;12.72;79.03
72892;BME280;61032;50.782;6.818;2023-08-08T02:26:21;100493.91;;;12.70;78.84
72892;BME280;61032;50.782;6.818;2023-08-08T02:27:22;100498.28;;;12.71;78.83
72892;BME280;61032;50.782;6.818;2023-08-08T02:28:22;100494.84;;;12.74;79.08
72892;BME280;61032;50.782;6.818;2023-08-08T02:29:22;100493.44;;;12.68;78.72
72892;BME280;61032;50.782;6.818;2023-08-08T02:30:23;100487.94;;;12.68;79.00
72892;BME280;61032;50.782;6.818;2023-08-08T02:31:23;100484.28;;;12.64;78.87
72892;BME280;61032;50.782;6.818;2023-08-08T02:32:23;100487.50;;;12.66;79.00
72892;BME280;61032;50.782;6.818;2023-08-08T02:33:24;100485.88;;;12.65;79.08
72892;BME280;61032;50.782;6.818;2023-08-08T02:34:24;100486.34;;;12.67;78.92
72892;BME280;61032;50.782;6.818;2023-08-08T02:35:25;100488.19;;;12.63;78.99
72892;BME280;61032;50.782;6.818;2023-08-08T02:36:25;100479.44;;;12.61;79.17
72892;BME280;61032;50.782;6.818;2023-08-08T02:37:25;100480.25;;;12.61;79.19
72892;BME280;61032;50.782;6.818;2023-08-08T02:38:26;100489.69;;;12.60;79.28
72892;BME280;61032;50.782;6.818;2023-08-08T02:39:26;100479.44;;;12.61;79.59
72892;BME280;61032;50.782;6.818;2023-08-08T02:40:26;100481.75;;;12.59;79.34
72892;BME280;61032;50.782;6.818;2023-08-08T02:41:27;100478.41;;;12.53;79.47
72892;BME280;61032;50.782;6.818;2023-08-08T02:42:27;100475.06;;;12.48;79.57
72892;BME280;61032;50.782;6.818;2023-08-08T02:43:27;100477.47;;;12.49;80.10
72892;BME280;61032;50.782;6.818;2023-08-08T02:44:28;100474.03;;;12.52;79.88
72892;BME280;61032;50.782;6.818;2023-08-08T02:45:28;100475.97;;;12.52;79.64
72892;BME280;61032;50.782;6.818;2023-08-08T02:46:28;100483.78;;;12.50;79.91
72892;BME280;61032;50.782;6.818;2023-08-08T02:47:29;100477.81;;;12.48;79.77
72892;BME280;61032;50.782;6.818;2023-08-08T02:48:29;100469.09;;;12.46;79.65
72892;BME280;61032;50.782;6.818;2023-08-08T02:49:30;100473.81;;;12.45;80.27
72892;BME280;61032;50.782;6.818;2023-08-08T02:50:30;100474.97;;;12.44;80.23
72892;BME280;61032;50.782;6.818;2023-08-08T02:51:30;100472.66;;;12.46;80.54
72892;BME280;61032;50.782;6.818;2023-08-08T02:52:31;100476.22;;;12.47;80.14
72892;BME280;61032;50.782;6.818;2023-08-08T02:53:31;100465.63;;;12.49;80.13
72892;BME280;61032;50.782;6.818;2023-08-08T02:54:31;100459.31;;;12.48;79.99
72892;BME280;61032;50.782;6.818;2023-08-08T02:55:32;100466.44;;;12.49;79.97
72892;BME280;61032;50.782;6.818;2023-08-08T02:56:32;100465.63;;;12.49;79.96
72892;BME280;61032;50.782;6.818;2023-08-08T02:57:32;100469.53;;;12.48;80.00
72892;BME280;61032;50.782;6.818;2023-08-08T02:58:33;100462.88;;;12.49;80.20
72892;BME280;61032;50.782;6.818;2023-08-08T02:59:33;100454.59;;;12.49;79.95
72892;BME280;61032;50.782;6.818;2023-08-08T03:00:33;100460.03;;;12.45;79.99
72892;BME280;61032;50.782;6.818;2023-08-08T03:01:34;100460.38;;;12.44;79.80
72892;BME280;61032;50.782;6.818;2023-08-08T03:02:37;100456.94;;;12.47;80.08
72892;BME280;61032;50.782;6.818;2023-08-08T03:03:38;100454.59;;;12.49;80.47
72892;BME280;61032;50.782;6.818;2023-08-08T03:04:38;100458.50;;;12.48;80.44
72892;BME280;61032;50.782;6.818;2023-08-08T03:05:38;100455.75;;;12.48;80.30
72892;BME280;61032;50.782;6.818;2023-08-08T03:06:39;100455.88;;;12.51;80.10
72892;BME280;61032;50.782;6.818;2023-08-08T03:07:39;100457.47;;;12.52;80.13
72892;BME280;61032;50.782;6.818;2023-08-08T03:08:39;100457.03;;;12.50;80.35
72892;BME280;61032;50.782;6.818;2023-08-08T03:09:40;100450.81;;;12.53;80.06
72892;BME280;61032;50.782;6.818;2023-08-08T03:10:40;100463.25;;;12.59;80.02
72892;BME280;61032;50.782;6.818;2023-08-08T03:11:41;100449.56;;;12.63;80.09
72892;BME280;61032;50.782;6.818;2023-08-08T03:12:41;100459.00;;;12.62;79.80
72892;BME280;61032;50.782;6.818;2023-08-08T03:13:42;100449.09;;;12.61;79.94
72892;BME280;61032;50.782;6.818;2023-08-08T03:14:42;100459.34;;;12.60;79.71
72892;BME280;61032;50.782;6.818;2023-08-08T03:15:42;100444.28;;;12.58;80.19
72892;BME280;61032;50.782;6.818;2023-08-08T03:16:43;100451.75;;;12.57;80.00
72892;BME280;61032;50.782;6.818;2023-08-08T03:17:43;100446.22;;;12.57;79.92
72892;BME280;61032;50.782;6.818;2023-08-08T03:18:44;100444.28;;;12.58;79.84
72892;BME280;61032;50.782;6.818;2023-08-08T03:19:44;100446.69;;;12.59;80.05
72892;BME280;61032;50.782;6.818;2023-08-08T03:20:44;100445.19;;;12.62;79.88
72892;BME280;61032;50.782;6.818;2023-08-08T03:21:45;100447.97;;;12.62;79.78
72892;BME280;61032;50.782;6.818;2023-08-08T03:22:45;100446.34;;;12.61;79.77
72892;BME280;61032;50.782;6.818;2023-08-08T03:23:46;100434.97;;;12.62;79.78
72892;BME280;61032;50.782;6.818;2023-08-08T03:24:46;100440.84;;;12.61;79.54
72892;BME280;61032;50.782;6.818;2023-08-08T03:25:46;100436.13;;;12.61;79.54
72892;BME280;61032;50.782;6.818;2023-08-08T03:26:47;100441.28;;;12.63;79.71
72892;BME280;61032;50.782;6.818;2023-08-08T03:27:47;100436.13;;;12.61;79.53
72892;BME280;61032;50.782;6.818;2023-08-08T03:28:47;100438.53;;;12.63;79.40
72892;BME280;61032;50.782;6.818;2023-08-08T03:29:51;100439.91;;;12.57;79.45
72892;BME280;61032;50.782;6.818;2023-08-08T03:30:51;100428.88;;;12.57;79.50
72892;BME280;61032;50.782;6.818;2023-08-08T03:31:51;100436.81;;;12.58;79.39
72892;BME280;61032;50.782;6.818;2023-08-08T03:32:52;100434.84;;;12.59;79.36
72892;BME280;61032;50.782;6.818;2023-08-08T03:33:52;100441.97;;;12.60;79.47
72892;BME280;61032;50.782;6.818;2023-08-08T03:34:52;100436.00;;;12.58;79.61
72892;BME280;61032;50.782;6.818;2023-08-08T03:35:52;100435.19;;;12.57;79.72
72892;BME280;61032;50.782;6.818;2023-08-08T03:36:53;100437.63;;;12.59;79.46
72892;BME280;61032;50.782;6.818;2023-08-08T03:37:53;100437.97;;;12.57;79.32
72892;BME280;61032;50.782;6.818;2023-08-08T03:38:53;100434.41;;;12.57;79.37
72892;BME280;61032;50.782;6.818;2023-08-08T03:39:54;100438.88;;;12.61;79.13
72892;BME280;61032;50.782;6.818;2023-08-08T03:40:54;100437.63;;;12.59;79.19
72892;BME280;61032;50.782;6.818;2023-08-08T03:41:54;100432.91;;;12.59;79.18
72892;BME280;61032;50.782;6.818;2023-08-08T03:42:54;100431.41;;;12.62;79.15
72892;BME280;61032;50.782;6.818;2023-08-08T03:43:55;100439.69;;;12.62;79.17
72892;BME280;61032;50.782;6.818;2023-08-08T03:44:57;100427.03;;;12.61;78.86
72892;BME280;61032;50.782;6.818;2023-08-08T03:45:57;100434.16;;;12.62;78.88
72892;BME280;61032;50.782;6.818;2023-08-08T03:46:57;100430.25;;;12.63;78.81
72892;BME280;61032;50.782;6.818;2023-08-08T03:47:57;100425.78;;;12.58;78.82
72892;BME280;61032;50.782;6.818;2023-08-08T03:48:58;100432.09;;;12.59;78.89
72892;BME280;61032;50.782;6.818;2023-08-08T03:49:58;100427.59;;;12.54;79.12
72892;BME280;61032;50.782;6.818;2023-08-08T03:50:58;100429.91;;;12.52;78.78
72892;BME280;61032;50.782;6.818;2023-08-08T03:51:59;100433.81;;;12.51;78.85
72892;BME280;61032;50.782;6.818;2023-08-08T03:52:59;100432.19;;;12.50;79.06
72892;BME280;61032;50.782;6.818;2023-08-08T03:53:59;100431.16;;;12.55;79.06
72892;BME280;61032;50.782;6.818;2023-08-08T03:55:00;100430.03;;;12.56;78.72
72892;BME280;61032;50.782;6.818;2023-08-08T03:56:00;100427.25;;;12.56;78.64
72892;BME280;61032;50.782;6.818;2023-08-08T03:57:00;100431.63;;;12.57;78.57
72892;BME280;61032;50.782;6.818;2023-08-08T03:58:02;100434.06;;;12.58;78.61
72892;BME280;61032;50.782;6.818;2023-08-08T03:59:02;100443.47;;;12.57;78.43
72892;BME280;61032;50.782;6.818;2023-08-08T04:00:03;100434.84;;;12.59;78.25
72892;BME280;61032;50.782;6.818;2023-08-08T04:01:04;100441.53;;;12.58;78.38
72892;BME280;61032;50.782;6.818;2023-08-08T04:02:04;100436.22;;;12.53;78.24
72892;BME280;61032;50.782;6.818;2023-08-08T04:03:05;100442.88;;;12.52;78.43
72892;BME280;61032;50.782;6.818;2023-08-08T04:04:05;100432.19;;;12.50;78.42
72892;BME280;61032;50.782;6.818;2023-08-08T04:05:06;100441.28;;;12.51;78.53
72892;BME280;61032;50.782;6.818;2023-08-08T04:06:06;100435.88;;;12.54;78.42
72892;BME280;61032;50.782;6.818;2023-08-08T04:07:06;100430.72;;;12.53;78.30
72892;BME280;61032;50.782;6.818;2023-08-08T04:08:07;100433.59;;;12.56;78.42
72892;BME280;61032;50.782;6.818;2023-08-08T04:09:07;100434.28;;;12.53;78.39
72892;BME280;61032;50.782;6.818;2023-08-08T04:10:07;100435.06;;;12.54;78.38
72892;BME280;61032;50.782;6.818;2023-08-08T04:11:08;100431.16;;;12.55;78.39
72892;BME280;61032;50.782;6.818;2023-08-08T04:12:08;100432.31;;;12.54;78.20
72892;BME280;61032;50.782;6.818;2023-08-08T04:13:09;100432.31;;;12.54;78.20
72892;BME280;61032;50.782;6.818;2023-08-08T04:14:10;100430.38;;;12.54;78.48
72892;BME280;61032;50.782;6.818;2023-08-08T04:15:11;100437.84;;;12.54;78.29
72892;BME280;61032;50.782;6.818;2023-08-08T04:16:11;100433.25;;;12.58;78.45
72892;BME280;61032;50.782;6.818;2023-08-08T04:17:11;100434.06;;;12.58;78.23
72892;BME280;61032;50.782;6.818;2023-08-08T04:18:11;100435.66;;;12.59;78.36
72892;BME280;61032;50.782;6.818;2023-08-08T04:19:12;100434.50;;;12.60;78.35
72892;BME280;61032;50.782;6.818;2023-08-08T04:20:12;100434.50;;;12.60;78.33
72892;BME280;61032;50.782;6.818;2023-08-08T04:21:12;100439.22;;;12.60;78.27
72892;BME280;61032;50.782;6.818;2023-08-08T04:22:13;100440.84;;;12.61;78.39
72892;BME280;61032;50.782;6.818;2023-08-08T04:23:15;100437.63;;;12.59;78.33
72892;BME280;61032;50.782;6.818;2023-08-08T04:24:15;100436.94;;;12.62;78.23
72892;BME280;61032;50.782;6.818;2023-08-08T04:25:16;100440.16;;;12.64;78.08
72892;BME280;61032;50.782;6.818;2023-08-08T04:26:16;100441.28;;;12.63;77.89
72892;BME280;61032;50.782;6.818;2023-08-08T04:27:17;100438.06;;;12.61;78.40
72892;BME280;61032;50.782;6.818;2023-08-08T04:28:17;100440.38;;;12.59;78.14
72892;BME280;61032;50.782;6.818;2023-08-08T04:29:17;100441.53;;;12.58;78.30
72892;BME280;61032;50.782;6.818;2023-08-08T04:30:18;100440.72;;;12.57;78.62
72892;BME280;61032;50.782;6.818;2023-08-08T04:31:18;100441.63;;;12.61;78.40
72892;BME280;61032;50.782;6.818;2023-08-08T04:32:19;100442.44;;;12.62;78.11
72892;BME280;61032;50.782;6.818;2023-08-08T04:33:19;100443.25;;;12.62;78.22
72892;BME280;61032;50.782;6.818;2023-08-08T04:34:19;100442.44;;;12.62;78.43
72892;BME280;61032;50.782;6.818;2023-08-08T04:35:20;100442.44;;;12.62;78.22
72892;BME280;61032;50.782;6.818;2023-08-08T04:36:20;100436.47;;;12.60;78.12
72892;BME280;61032;50.782;6.818;2023-08-08T04:37:20;100443.94;;;12.59;78.09
72892;BME280;61032;50.782;6.818;2023-08-08T04:38:21;100441.19;;;12.59;78.50
72892;BME280;61032;50.782;6.818;2023-08-08T04:39:21;100441.28;;;12.63;78.38
72892;BME280;61032;50.782;6.818;2023-08-08T04:40:21;100442.44;;;12.62;78.29
72892;BME280;61032;50.782;6.818;2023-08-08T04:41:21;100443.72;;;12.64;78.29
72892;BME280;61032;50.782;6.818;2023-08-08T04:42:22;100437.72;;;12.62;78.46
72892;BME280;61032;50.782;6.818;2023-08-08T04:43:22;100436.13;;;12.61;78.72
72892;BME280;61032;50.782;6.818;2023-08-08T04:44:23;100436.47;;;12.60;78.40
72892;BME280;61032;50.782;6.818;2023-08-08T04:45:23;100435.44;;;12.64;78.63
72892;BME280;61032;50.782;6.818;2023-08-08T04:46:23;100432.34;;;12.66;78.67
72892;BME280;61032;50.782;6.818;2023-08-08T04:47:24;100442.66;;;12.69;78.39
72892;BME280;61032;50.782;6.818;2023-08-08T04:48:24;100447.47;;;12.72;78.08
72892;BME280;61032;50.782;6.818;2023-08-08T04:49:24;100439.66;;;12.74;78.35
72892;BME280;61032;50.782;6.818;2023-08-08T04:50:25;100438.16;;;12.77;78.37
72892;BME280;61032;50.782;6.818;2023-08-08T04:51:25;100442.53;;;12.78;78.36
72892;BME280;61032;50.782;6.818;2023-08-08T04:52:26;100436.22;;;12.77;78.76
72892;BME280;61032;50.782;6.818;2023-08-08T04:53:26;100435.06;;;12.78;78.33
72892;BME280;61032;50.782;6.818;2023-08-08T04:54:26;100438.97;;;12.77;78.26
72892;BME280;61032;50.782;6.818;2023-08-08T04:55:27;100436.44;;;12.84;78.36
72892;BME280;61032;50.782;6.818;2023-08-08T04:56:27;100438.53;;;12.87;78.11
72892;BME280;61032;50.782;6.818;2023-08-08T04:57:28;100435.84;;;12.91;78.16
72892;BME280;61032;50.782;6.818;2023-08-08T04:58:28;100434.34;;;12.93;78.12
72892;BME280;61032;50.782;6.818;2023-08-08T04:59:29;100435.63;;;12.96;78.10
72892;BME280;61032;50.782;6.818;2023-08-08T05:00:29;100439.97;;;12.97;78.17
72892;BME280;61032;50.782;6.818;2023-08-08T05:01:29;100432.50;;;12.97;78.40
72892;BME280;61032;50.782;6.818;2023-08-08T05:02:30;100436.41;;;12.96;78.48
72892;BME280;61032;50.782;6.818;2023-08-08T05:03:30;100435.63;;;12.96;78.29
72892;BME280;61032;50.782;6.818;2023-08-08T05:04:31;100435.63;;;12.96;78.84
72892;BME280;61032;50.782;6.818;2023-08-08T05:05:31;100431.25;;;12.95;79.14
72892;BME280;61032;50.782;6.818;2023-08-08T05:06:31;100430.09;;;12.96;78.94
72892;BME280;61032;50.782;6.818;2023-08-08T05:07:31;100431.72;;;12.97;79.50
72892;BME280;61032;50.782;6.818;2023-08-08T05:08:32;100438.16;;;13.01;79.46
72892;BME280;61032;50.782;6.818;2023-08-08T05:09:33;100441.72;;;13.01;79.52
72892;BME280;61032;50.782;6.818;2023-08-08T05:10:33;100435.59;;;13.08;79.59
72892;BME280;61032;50.782;6.818;2023-08-08T05:11:34;100433.19;;;13.06;79.91
72892;BME280;61032;50.782;6.818;2023-08-08T05:12:35;100438.44;;;13.12;79.70
72892;BME280;61032;50.782;6.818;2023-08-08T05:13:36;100442.81;;;13.13;80.02
72892;BME280;61032;50.782;6.818;2023-08-08T05:14:36;100439.84;;;13.18;79.97
72892;BME280;61032;50.782;6.818;2023-08-08T05:15:37;100434.09;;;13.23;79.79
72892;BME280;61032;50.782;6.818;2023-08-08T05:16:37;100435.00;;;13.27;79.56
72892;BME280;61032;50.782;6.818;2023-08-08T05:17:38;100431.97;;;13.32;79.42
72892;BME280;61032;50.782;6.818;2023-08-08T05:18:38;100424.25;;;13.37;79.54
72892;BME280;61032;50.782;6.818;2023-08-08T05:19:38;100425.06;;;13.38;79.40